Close

Questo sito utlizza cookie. Può leggere come li usiamo nella nostra Privacy Policy.

Ronchi Tower
Ronchi Tower

From Facebook

METAR & TAF

2018/05/24 14:50 LIPQ 241450Z 35008KT 9999 FEW030 SCT080 22/17 Q1015
2018/05/24 12:21 TAF LIPQ 241100Z 2412/2512 VRB05KT 9999 SCT030 TEMPO 2412/2418 TSRA
2018/05/24 14:50 LIPZ 241450Z 19006KT CAVOK 26/16 Q1014 NOSIG
2018/05/24 12:21 TAF LIPZ 241100Z 2412/2518 VRB05KT 9999 FEW040 BECMG 2420/2422 02010KT BECMG 2508/2510 16008KT
2018/05/24 14:50 LIPH 241450Z VRB03KT 9999 FEW025CB SCT050 27/17 Q1014
2018/05/24 14:14 TAF AMD LIPH 241406Z 2414/2512 VRB05KT CAVOK TEMPO 2414/2418 TSRA
2018/05/24 14:50 LIRF 241450Z 28015KT CAVOK 22/17 Q1015 NOSIG
2018/05/24 12:23 TAF LIRF 241100Z 2412/2518 29013KT 9999 SCT025 BECMG 2416/2418 VRB05KT TEMPO 2502/2505 4000 BR BECMG 2508/2510 27013KT
2018/05/24 14:50 LIML 241450Z 19005KT 150V320 9999 SCT040 26/15 Q1015 NOSIG
No TAF found
2018/05/24 14:50 EDDM 241450Z 08003KT 350V160 9999 SCT028 SCT120 21/14 Q1017 NOSIG
2018/05/24 12:27 TAF EDDM 241100Z 2412/2518 23005KT 9999 SCT025 TEMPO 2412/2418 12005KT PROB30 TEMPO 2412/2420 TSRA BKN025CB BECMG 2418/2420 VRB02KT BECMG 2422/2502 4000 BCFG PROB30 TEMPO 2502/2505 0700 FG BECMG 2506/2508 35005KT PROB30 TEMPO 2512/2518 TSRA SCT040CB
2018/05/24 14:50 EGSS 241450Z AUTO 07014KT 9999 NCD 23/10 Q1018
2018/05/24 12:15 TAF EGSS 241108Z 2412/2518 02008KT 9999 SCT025 TEMPO 2415/2507 6000 SHRA PROB30 TEMPO 2416/2502 3000 +SHRA BECMG 2423/2502 7000 BKN007 TEMPO 2423/2509 3000 BR BKN003 PROB40 2501/2507 0300 FG BKN001 BECMG 2509/2512 9999 SCT017

FlightRadar24

Radar Meteo

Traffic data

Marzo 2018

Passeggeri: 57555-3,4% (rank: 23)
Nazionali 39679 +1,0% 21°
Internazionali 17689 -11,7% 23°

Movimenti: 1074-16,3% (rank: 21)
Tot commerciale 653 -10,3% 22°
Aviazione generale 421 -24,1%

Cargo (tons): 96,3109,5% (rank: 18)

Gennaio - Marzo 2018

Passeggeri: 155953-1,4% (rank: 23)
Nazionali 108431 +3,9% 21°
Internazionali 47066 -11,5% 22°

Movimenti: 3163-14,5% (rank: 21)
Tot commerciale 1876 -7,3% 21°
Aviazione generale 1287 -23,3%

Cargo (tons): 125,6+16,7% (rank: 21)

Photo

Douglas DC-6B
Douglas DC-6B
Distinct views: 16
Douglas DC-6B
Douglas DC-6B
Distinct views: 50
ATR ATR-72
ATR ATR-72
Distinct views: 721
Boeing 737-800
Boeing 737-800
Total views: 1154